sensor_id;sensor_type;location;lat;lon;timestamp;pressure;altitude;pressure_sealevel;temperature;humidity
42633;BME280;28261;53.304;-6.284;2022-09-06T00:00:00;100234.13;;;15.23;100.00
42633;BME280;28261;53.304;-6.284;2022-09-06T00:02:13;100230.78;;;15.21;100.00
42633;BME280;28261;53.304;-6.284;2022-09-06T00:04:17;100236.13;;;15.21;100.00
42633;BME280;28261;53.304;-6.284;2022-09-06T00:06:23;100237.78;;;15.22;100.00
42633;BME280;28261;53.304;-6.284;2022-09-06T00:08:31;100238.63;;;15.23;100.00
42633;BME280;28261;53.304;-6.284;2022-09-06T00:10:35;100238.63;;;15.23;100.00
42633;BME280;28261;53.304;-6.284;2022-09-06T00:12:40;100241.47;;;15.21;100.00
42633;BME280;28261;53.304;-6.284;2022-09-06T00:14:44;100232.59;;;15.21;100.00
42633;BME280;28261;53.304;-6.284;2022-09-06T00:16:48;100246.78;;;15.21;100.00
42633;BME280;28261;53.304;-6.284;2022-09-06T00:18:52;100248.47;;;15.22;100.00
42633;BME280;28261;53.304;-6.284;2022-09-06T00:20:56;100256.47;;;15.22;100.00
42633;BME280;28261;53.304;-6.284;2022-09-06T00:23:02;100252.00;;;15.23;100.00
42633;BME280;28261;53.304;-6.284;2022-09-06T00:25:08;100250.16;;;15.23;100.00
42633;BME280;28261;53.304;-6.284;2022-09-06T00:27:13;100245.66;;;15.24;100.00
42633;BME280;28261;53.304;-6.284;2022-09-06T00:29:16;100250.16;;;15.23;100.00
42633;BME280;28261;53.304;-6.284;2022-09-06T00:31:21;100253.53;;;15.26;100.00
42633;BME280;28261;53.304;-6.284;2022-09-06T00:33:26;100243.84;;;15.25;100.00
42633;BME280;28261;53.304;-6.284;2022-09-06T00:35:33;100244.81;;;15.23;100.00
42633;BME280;28261;53.304;-6.284;2022-09-06T00:37:39;100241.16;;;15.25;100.00
42633;BME280;28261;53.304;-6.284;2022-09-06T00:39:43;100249.72;;;15.28;100.00
42633;BME280;28261;53.304;-6.284;2022-09-06T00:41:49;100242.56;;;15.29;100.00
42633;BME280;28261;53.304;-6.284;2022-09-06T00:43:53;100248.72;;;15.29;100.00
42633;BME280;28261;53.304;-6.284;2022-09-06T00:45:57;100250.41;;;15.30;100.00
42633;BME280;28261;53.304;-6.284;2022-09-06T00:48:04;100245.91;;;15.31;100.00
42633;BME280;28261;53.304;-6.284;2022-09-06T00:50:12;100239.72;;;15.30;100.00
42633;BME280;28261;53.304;-6.284;2022-09-06T00:52:17;100245.91;;;15.31;100.00
42633;BME280;28261;53.304;-6.284;2022-09-06T00:54:21;100251.25;;;15.31;100.00
42633;BME280;28261;53.304;-6.284;2022-09-06T00:56:26;100236.09;;;15.31;100.00
42633;BME280;28261;53.304;-6.284;2022-09-06T00:58:32;100228.22;;;15.30;100.00
42633;BME280;28261;53.304;-6.284;2022-09-06T01:00:36;100237.22;;;15.29;100.00
42633;BME280;28261;53.304;-6.284;2022-09-06T01:02:40;100236.50;;;15.27;100.00
42633;BME280;28261;53.304;-6.284;2022-09-06T01:04:46;100234.13;;;15.23;100.00
42633;BME280;28261;53.304;-6.284;2022-09-06T01:06:58;100238.63;;;15.23;100.00
42633;BME280;28261;53.304;-6.284;2022-09-06T01:09:16;100240.75;;;15.19;100.00
42633;BME280;28261;53.304;-6.284;2022-09-06T01:11:33;100240.06;;;15.17;100.00
42633;BME280;28261;53.304;-6.284;2022-09-06T01:13:48;100242.03;;;15.15;100.00
42633;BME280;28261;53.304;-6.284;2022-09-06T01:16:02;100231.50;;;15.14;100.00
42633;BME280;28261;53.304;-6.284;2022-09-06T01:18:18;100237.81;;;15.13;100.00
42633;BME280;28261;53.304;-6.284;2022-09-06T01:20:35;100238.09;;;15.10;100.00
42633;BME280;28261;53.304;-6.284;2022-09-06T01:25:32;100243.59;;;15.08;100.00
42633;BME280;28261;53.304;-6.284;2022-09-06T01:28:09;100235.59;;;15.08;100.00
42633;BME280;28261;53.304;-6.284;2022-09-06T01:30:18;100240.22;;;15.06;100.00
42633;BME280;28261;53.304;-6.284;2022-09-06T01:32:26;100238.41;;;15.06;100.00
42633;BME280;28261;53.304;-6.284;2022-09-06T01:34:38;100236.84;;;15.04;100.00
42633;BME280;28261;53.304;-6.284;2022-09-06T01:36:49;100236.16;;;15.02;100.00
42633;BME280;28261;53.304;-6.284;2022-09-06T01:39:19;100234.50;;;15.01;100.00
42633;BME280;28261;53.304;-6.284;2022-09-06T01:41:25;100235.31;;;15.01;100.00
42633;BME280;28261;53.304;-6.284;2022-09-06T01:43:32;100235.47;;;15.00;100.00
42633;BME280;28261;53.304;-6.284;2022-09-06T01:45:42;100233.63;;;15.00;100.00
42633;BME280;28261;53.304;-6.284;2022-09-06T01:47:59;100229.97;;;15.01;100.00
42633;BME280;28261;53.304;-6.284;2022-09-06T01:50:25;100230.13;;;15.00;100.00
42633;BME280;28261;53.304;-6.284;2022-09-06T01:52:34;100234.50;;;15.01;100.00
42633;BME280;28261;53.304;-6.284;2022-09-06T01:54:48;100239.81;;;15.01;100.00
42633;BME280;28261;53.304;-6.284;2022-09-06T01:57:06;100246.81;;;15.02;100.00
42633;BME280;28261;53.304;-6.284;2022-09-06T01:59:29;100238.66;;;15.03;100.00
42633;BME280;28261;53.304;-6.284;2022-09-06T02:01:39;100241.22;;;15.05;100.00
42633;BME280;28261;53.304;-6.284;2022-09-06T02:03:48;100244.44;;;15.09;100.00
42633;BME280;28261;53.304;-6.284;2022-09-06T02:06:01;100244.28;;;15.10;100.00
42633;BME280;28261;53.304;-6.284;2022-09-06T02:08:09;100248.50;;;15.13;100.00
42633;BME280;28261;53.304;-6.284;2022-09-06T02:10:20;100249.34;;;15.13;100.00
42633;BME280;28261;53.304;-6.284;2022-09-06T02:12:27;100243.88;;;15.15;100.00
42633;BME280;28261;53.304;-6.284;2022-09-06T02:14:35;100245.41;;;15.17;100.00
42633;BME280;28261;53.304;-6.284;2022-09-06T02:16:43;100240.06;;;15.17;100.00
42633;BME280;28261;53.304;-6.284;2022-09-06T02:18:51;100247.06;;;15.18;100.00
42633;BME280;28261;53.304;-6.284;2022-09-06T02:20:57;100235.56;;;15.18;100.00
42633;BME280;28261;53.304;-6.284;2022-09-06T02:23:03;100236.38;;;15.18;100.00
42633;BME280;28261;53.304;-6.284;2022-09-06T02:25:09;100231.03;;;15.18;100.00
42633;BME280;28261;53.304;-6.284;2022-09-06T02:27:15;100231.03;;;15.18;100.00
42633;BME280;28261;53.304;-6.284;2022-09-06T02:29:19;100231.03;;;15.18;100.00
42633;BME280;28261;53.304;-6.284;2022-09-06T02:31:27;100231.91;;;15.19;100.00
42633;BME280;28261;53.304;-6.284;2022-09-06T02:33:32;100243.41;;;15.19;100.00
42633;BME280;28261;53.304;-6.284;2022-09-06T02:35:42;100239.78;;;15.20;100.00
42633;BME280;28261;53.304;-6.284;2022-09-06T02:37:47;100236.13;;;15.21;100.00
42633;BME280;28261;53.304;-6.284;2022-09-06T02:39:50;100234.44;;;15.20;100.00
42633;BME280;28261;53.304;-6.284;2022-09-06T02:41:55;100230.78;;;15.21;100.00
42633;BME280;28261;53.304;-6.284;2022-09-06T02:43:58;100233.72;;;15.18;100.00
42633;BME280;28261;53.304;-6.284;2022-09-06T02:46:02;100232.75;;;15.19;100.00
42633;BME280;28261;53.304;-6.284;2022-09-06T02:48:07;100219.38;;;15.19;100.00
42633;BME280;28261;53.304;-6.284;2022-09-06T02:50:11;100221.22;;;15.19;100.00
42633;BME280;28261;53.304;-6.284;2022-09-06T02:52:15;100209.00;;;15.16;100.00
42633;BME280;28261;53.304;-6.284;2022-09-06T02:54:18;100217.00;;;15.16;100.00
42633;BME280;28261;53.304;-6.284;2022-09-06T02:56:23;100226.00;;;15.15;100.00
42633;BME280;28261;53.304;-6.284;2022-09-06T02:58:27;100217.31;;;15.13;100.00
42633;BME280;28261;53.304;-6.284;2022-09-06T03:00:31;100214.75;;;15.12;100.00
42633;BME280;28261;53.304;-6.284;2022-09-06T03:02:35;100212.25;;;15.10;100.00
42633;BME280;28261;53.304;-6.284;2022-09-06T03:04:40;100210.56;;;15.09;100.00
42633;BME280;28261;53.304;-6.284;2022-09-06T03:06:44;100215.22;;;15.07;100.00
42633;BME280;28261;53.304;-6.284;2022-09-06T03:08:48;100210.03;;;15.05;100.00
42633;BME280;28261;53.304;-6.284;2022-09-06T03:10:52;100214.53;;;15.05;100.00
42633;BME280;28261;53.304;-6.284;2022-09-06T03:12:57;100211.16;;;15.03;100.00
42633;BME280;28261;53.304;-6.284;2022-09-06T03:15:01;100216.47;;;15.03;100.00
42633;BME280;28261;53.304;-6.284;2022-09-06T03:17:05;100212.97;;;15.02;100.00
42633;BME280;28261;53.304;-6.284;2022-09-06T03:19:08;100210.31;;;15.02;100.00
42633;BME280;28261;53.304;-6.284;2022-09-06T03:21:13;100200.47;;;15.03;100.00
42633;BME280;28261;53.304;-6.284;2022-09-06T03:23:17;100197.66;;;15.04;100.00
42633;BME280;28261;53.304;-6.284;2022-09-06T03:25:20;100203.00;;;15.04;100.00
42633;BME280;28261;53.304;-6.284;2022-09-06T03:27:23;100192.31;;;15.04;100.00
42633;BME280;28261;53.304;-6.284;2022-09-06T03:29:27;100196.81;;;15.04;100.00
42633;BME280;28261;53.304;-6.284;2022-09-06T03:31:30;100194.84;;;15.06;100.00
42633;BME280;28261;53.304;-6.284;2022-09-06T03:33:33;100188.66;;;15.05;100.00
42633;BME280;28261;53.304;-6.284;2022-09-06T03:35:37;100195.13;;;15.03;100.00
42633;BME280;28261;53.304;-6.284;2022-09-06T03:37:43;100181.09;;;15.01;100.00
42633;BME280;28261;53.304;-6.284;2022-09-06T03:39:48;100183.88;;;14.99;100.00
42633;BME280;28261;53.304;-6.284;2022-09-06T03:41:52;100188.53;;;14.97;100.00
42633;BME280;28261;53.304;-6.284;2022-09-06T03:43:56;100185.03;;;14.97;100.00
42633;BME280;28261;53.304;-6.284;2022-09-06T03:46:00;100183.34;;;14.96;100.00
42633;BME280;28261;53.304;-6.284;2022-09-06T03:48:04;100189.66;;;14.95;100.00
42633;BME280;28261;53.304;-6.284;2022-09-06T03:50:08;100194.34;;;14.93;100.00
42633;BME280;28261;53.304;-6.284;2022-09-06T03:52:12;100189.81;;;14.93;100.00
42633;BME280;28261;53.304;-6.284;2022-09-06T03:54:17;100196.00;;;14.94;100.00
42633;BME280;28261;53.304;-6.284;2022-09-06T03:56:21;100197.13;;;14.91;100.00
42633;BME280;28261;53.304;-6.284;2022-09-06T03:58:28;100200.53;;;14.83;100.00
42633;BME280;28261;53.304;-6.284;2022-09-06T04:00:32;100198.41;;;14.77;100.00
42633;BME280;28261;53.304;-6.284;2022-09-06T04:02:36;100196.34;;;14.71;100.00
42633;BME280;28261;53.304;-6.284;2022-09-06T04:04:40;100194.94;;;14.67;100.00
42633;BME280;28261;53.304;-6.284;2022-09-06T04:06:43;100202.38;;;14.63;100.00
42633;BME280;28261;53.304;-6.284;2022-09-06T04:08:47;100196.31;;;14.61;100.00
42633;BME280;28261;53.304;-6.284;2022-09-06T04:10:53;100191.09;;;14.60;100.00
42633;BME280;28261;53.304;-6.284;2022-09-06T04:12:57;100192.09;;;14.59;100.00
42633;BME280;28261;53.304;-6.284;2022-09-06T04:15:01;100191.25;;;14.58;100.00
42633;BME280;28261;53.304;-6.284;2022-09-06T04:17:04;100188.56;;;14.58;100.00
42633;BME280;28261;53.304;-6.284;2022-09-06T04:19:08;100192.09;;;14.59;100.00
42633;BME280;28261;53.304;-6.284;2022-09-06T04:21:12;100189.59;;;14.57;100.00
42633;BME280;28261;53.304;-6.284;2022-09-06T04:23:16;100195.75;;;14.58;100.00
42633;BME280;28261;53.304;-6.284;2022-09-06T04:25:20;100172.72;;;14.56;100.00
42633;BME280;28261;53.304;-6.284;2022-09-06T04:27:25;100180.03;;;14.54;100.00
42633;BME280;28261;53.304;-6.284;2022-09-06T04:29:29;100173.00;;;14.53;100.00
42633;BME280;28261;53.304;-6.284;2022-09-06T04:31:32;100184.81;;;14.51;100.00
42633;BME280;28261;53.304;-6.284;2022-09-06T04:33:36;100161.78;;;14.50;100.00
42633;BME280;28261;53.304;-6.284;2022-09-06T04:35:40;100170.75;;;14.49;100.00
42633;BME280;28261;53.304;-6.284;2022-09-06T04:37:43;100163.63;;;14.49;100.00
42633;BME280;28261;53.304;-6.284;2022-09-06T04:39:48;100171.75;;;14.48;100.00
42633;BME280;28261;53.304;-6.284;2022-09-06T04:41:51;100164.75;;;14.47;100.00
42633;BME280;28261;53.304;-6.284;2022-09-06T04:43:56;100164.44;;;14.50;100.00
42633;BME280;28261;53.304;-6.284;2022-09-06T04:46:04;100155.63;;;14.49;100.00
42633;BME280;28261;53.304;-6.284;2022-09-06T04:48:09;100156.44;;;14.50;100.00
42633;BME280;28261;53.304;-6.284;2022-09-06T04:50:12;100155.63;;;14.49;100.00
42633;BME280;28261;53.304;-6.284;2022-09-06T04:52:22;100157.56;;;14.47;100.00
42633;BME280;28261;53.304;-6.284;2022-09-06T04:54:31;100162.06;;;14.47;100.00
42633;BME280;28261;53.304;-6.284;2022-09-06T04:56:34;100159.53;;;14.45;100.00
42633;BME280;28261;53.304;-6.284;2022-09-06T04:58:38;100162.22;;;14.45;100.00
42633;BME280;28261;53.304;-6.284;2022-09-06T05:00:43;100164.88;;;14.45;100.00
42633;BME280;28261;53.304;-6.284;2022-09-06T05:02:47;100157.84;;;14.44;100.00
42633;BME280;28261;53.304;-6.284;2022-09-06T05:04:51;100170.22;;;14.45;100.00
42633;BME280;28261;53.304;-6.284;2022-09-06T05:07:00;100159.53;;;14.45;100.00
42633;BME280;28261;53.304;-6.284;2022-09-06T05:09:04;100164.88;;;14.45;100.00
42633;BME280;28261;53.304;-6.284;2022-09-06T05:11:08;100158.44;;;14.48;100.00
42633;BME280;28261;53.304;-6.284;2022-09-06T05:13:13;100159.25;;;14.48;100.00
42633;BME280;28261;53.304;-6.284;2022-09-06T05:15:17;100161.63;;;14.51;100.00
42633;BME280;28261;53.304;-6.284;2022-09-06T05:17:23;100159.69;;;14.53;100.00
42633;BME280;28261;53.304;-6.284;2022-09-06T05:19:26;100165.56;;;14.57;100.00
42633;BME280;28261;53.304;-6.284;2022-09-06T05:21:30;100163.75;;;14.58;100.00
42633;BME280;28261;53.304;-6.284;2022-09-06T05:23:34;100167.09;;;14.60;100.00
42633;BME280;28261;53.304;-6.284;2022-09-06T05:25:37;100162.47;;;14.62;100.00
42633;BME280;28261;53.304;-6.284;2022-09-06T05:27:41;100169.38;;;14.64;100.00
42633;BME280;28261;53.304;-6.284;2022-09-06T05:29:45;100159.53;;;14.65;100.00
42633;BME280;28261;53.304;-6.284;2022-09-06T05:31:48;100146.91;;;14.67;100.00
42633;BME280;28261;53.304;-6.284;2022-09-06T05:33:54;100157.59;;;14.67;100.00
42633;BME280;28261;53.304;-6.284;2022-09-06T05:35:58;100154.91;;;14.67;100.00
42633;BME280;28261;53.304;-6.284;2022-09-06T05:38:02;100153.09;;;14.67;100.00
42633;BME280;28261;53.304;-6.284;2022-09-06T05:40:07;100148.56;;;14.68;100.00
42633;BME280;28261;53.304;-6.284;2022-09-06T05:42:11;100158.28;;;14.69;100.00
42633;BME280;28261;53.304;-6.284;2022-09-06T05:44:20;100150.25;;;14.69;100.00
42633;BME280;28261;53.304;-6.284;2022-09-06T05:46:24;100151.13;;;14.69;100.00
42633;BME280;28261;53.304;-6.284;2022-09-06T05:48:28;100153.78;;;14.69;100.00
42633;BME280;28261;53.304;-6.284;2022-09-06T05:50:39;100150.25;;;14.69;100.00
42633;BME280;28261;53.304;-6.284;2022-09-06T05:52:42;100147.44;;;14.70;100.00
42633;BME280;28261;53.304;-6.284;2022-09-06T05:54:46;100147.44;;;14.70;100.00
42633;BME280;28261;53.304;-6.284;2022-09-06T05:56:50;100153.66;;;14.71;100.00
42633;BME280;28261;53.304;-6.284;2022-09-06T05:58:54;100162.34;;;14.73;100.00
42633;BME280;28261;53.304;-6.284;2022-09-06T06:01:04;100154.31;;;14.73;100.00
42633;BME280;28261;53.304;-6.284;2022-09-06T06:03:08;100162.19;;;14.75;100.00
42633;BME280;28261;53.304;-6.284;2022-09-06T06:05:12;100156.69;;;14.76;100.00
42633;BME280;28261;53.304;-6.284;2022-09-06T06:07:17;100153.75;;;14.79;100.00
42633;BME280;28261;53.304;-6.284;2022-09-06T06:09:21;100156.28;;;14.81;100.00
42633;BME280;28261;53.304;-6.284;2022-09-06T06:11:26;100154.31;;;14.83;100.00
42633;BME280;28261;53.304;-6.284;2022-09-06T06:13:30;100160.50;;;14.83;100.00
42633;BME280;28261;53.304;-6.284;2022-09-06T06:15:40;100155.84;;;14.85;100.00
42633;BME280;28261;53.304;-6.284;2022-09-06T06:17:44;100156.69;;;14.86;100.00
42633;BME280;28261;53.304;-6.284;2022-09-06T06:19:47;100156.41;;;14.89;100.00
42633;BME280;28261;53.304;-6.284;2022-09-06T06:21:51;100149.22;;;14.89;100.00
42633;BME280;28261;53.304;-6.284;2022-09-06T06:24:00;100155.28;;;14.92;100.00
42633;BME280;28261;53.304;-6.284;2022-09-06T06:26:05;100147.81;;;14.95;100.00
42633;BME280;28261;53.304;-6.284;2022-09-06T06:28:09;100151.03;;;14.99;100.00
42633;BME280;28261;53.304;-6.284;2022-09-06T06:30:13;100150.72;;;15.02;100.00
42633;BME280;28261;53.304;-6.284;2022-09-06T06:32:19;100155.81;;;15.05;100.00
42633;BME280;28261;53.304;-6.284;2022-09-06T06:34:23;100150.16;;;15.08;100.00
42633;BME280;28261;53.304;-6.284;2022-09-06T06:36:27;100150.69;;;15.12;100.00
42633;BME280;28261;53.304;-6.284;2022-09-06T06:38:33;100156.28;;;15.18;100.00
42633;BME280;28261;53.304;-6.284;2022-09-06T06:40:38;100151.34;;;15.23;100.00
42633;BME280;28261;53.304;-6.284;2022-09-06T06:42:42;100158.78;;;15.30;100.00
42633;BME280;28261;53.304;-6.284;2022-09-06T06:44:45;100156.50;;;15.35;100.00
42633;BME280;28261;53.304;-6.284;2022-09-06T06:46:49;100153.69;;;15.36;100.00
42633;BME280;28261;53.304;-6.284;2022-09-06T06:48:53;100153.69;;;15.36;100.00
42633;BME280;28261;53.304;-6.284;2022-09-06T06:50:58;100152.94;;;15.44;99.87
42633;BME280;28261;53.304;-6.284;2022-09-06T06:53:02;100145.47;;;15.48;98.62
42633;BME280;28261;53.304;-6.284;2022-09-06T06:55:08;100156.00;;;15.49;98.45
42633;BME280;28261;53.304;-6.284;2022-09-06T06:57:14;100151.97;;;15.45;97.93
42633;BME280;28261;53.304;-6.284;2022-09-06T06:59:17;100148.31;;;15.46;98.12
42633;BME280;28261;53.304;-6.284;2022-09-06T07:01:22;100139.41;;;15.73;97.45
42633;BME280;28261;53.304;-6.284;2022-09-06T07:03:28;100147.78;;;16.24;95.36
42633;BME280;28261;53.304;-6.284;2022-09-06T07:05:31;100145.09;;;16.69;91.60
42633;BME280;28261;53.304;-6.284;2022-09-06T07:07:55;100143.50;;;16.76;90.00
42633;BME280;28261;53.304;-6.284;2022-09-06T07:09:59;100144.81;;;16.72;90.48
42633;BME280;28261;53.304;-6.284;2022-09-06T07:12:24;100144.97;;;16.52;91.15
42633;BME280;28261;53.304;-6.284;2022-09-06T07:14:28;100152.22;;;16.34;92.71
42633;BME280;28261;53.304;-6.284;2022-09-06T07:16:32;100151.38;;;16.15;93.43
42633;BME280;28261;53.304;-6.284;2022-09-06T07:18:36;100153.06;;;15.98;94.86
42633;BME280;28261;53.304;-6.284;2022-09-06T07:20:43;100148.78;;;15.87;96.06
42633;BME280;28261;53.304;-6.284;2022-09-06T07:23:07;100150.38;;;15.80;96.92
42633;BME280;28261;53.304;-6.284;2022-09-06T07:25:31;100138.41;;;15.74;97.60
42633;BME280;28261;53.304;-6.284;2022-09-06T07:27:36;100138.88;;;15.70;98.07
42633;BME280;28261;53.304;-6.284;2022-09-06T07:29:48;100135.88;;;15.73;98.64
42633;BME280;28261;53.304;-6.284;2022-09-06T07:31:51;100132.78;;;15.78;98.08
42633;BME280;28261;53.304;-6.284;2022-09-06T07:34:14;100135.03;;;15.82;98.23
42633;BME280;28261;53.304;-6.284;2022-09-06T07:36:19;100123.34;;;15.83;97.35
42633;BME280;28261;53.304;-6.284;2022-09-06T07:38:22;100122.66;;;15.81;97.08
42633;BME280;28261;53.304;-6.284;2022-09-06T07:40:27;100135.19;;;15.81;97.28
42633;BME280;28261;53.304;-6.284;2022-09-06T07:42:32;100141.91;;;15.85;97.38
42633;BME280;28261;53.304;-6.284;2022-09-06T07:44:39;100138.91;;;15.88;96.07
42633;BME280;28261;53.304;-6.284;2022-09-06T07:46:42;100135.66;;;15.94;96.18
42633;BME280;28261;53.304;-6.284;2022-09-06T07:48:47;100133.66;;;15.96;95.40
42633;BME280;28261;53.304;-6.284;2022-09-06T07:50:51;100141.44;;;15.89;95.06
42633;BME280;28261;53.304;-6.284;2022-09-06T07:53:03;100130.38;;;15.84;95.33
42633;BME280;28261;53.304;-6.284;2022-09-06T07:55:12;100133.34;;;15.81;95.87
42633;BME280;28261;53.304;-6.284;2022-09-06T07:57:16;100128.13;;;15.80;95.92
42633;BME280;28261;53.304;-6.284;2022-09-06T07:59:19;100133.63;;;15.78;96.55
42633;BME280;28261;53.304;-6.284;2022-09-06T08:01:28;100135.31;;;15.79;96.51
42633;BME280;28261;53.304;-6.284;2022-09-06T08:03:33;100133.63;;;15.78;97.11
42633;BME280;28261;53.304;-6.284;2022-09-06T08:05:37;100124.78;;;15.78;96.97
42633;BME280;28261;53.304;-6.284;2022-09-06T08:08:17;100125.47;;;15.80;97.66
42633;BME280;28261;53.304;-6.284;2022-09-06T08:10:40;100121.81;;;15.81;98.02
42633;BME280;28261;53.304;-6.284;2022-09-06T08:12:44;100112.66;;;15.83;98.01
42633;BME280;28261;53.304;-6.284;2022-09-06T08:14:48;100109.66;;;15.86;98.12
42633;BME280;28261;53.304;-6.284;2022-09-06T08:16:53;100123.03;;;15.86;97.59
42633;BME280;28261;53.304;-6.284;2022-09-06T08:18:58;100122.22;;;15.86;98.15
42633;BME280;28261;53.304;-6.284;2022-09-06T08:21:06;100119.22;;;15.89;97.81
42633;BME280;28261;53.304;-6.284;2022-09-06T08:23:13;100121.91;;;15.89;98.06
42633;BME280;28261;53.304;-6.284;2022-09-06T08:25:17;100116.22;;;15.92;98.03
42633;BME280;28261;53.304;-6.284;2022-09-06T08:27:21;100120.44;;;15.95;98.08
42633;BME280;28261;53.304;-6.284;2022-09-06T08:29:24;100116.78;;;15.96;97.91
42633;BME280;28261;53.304;-6.284;2022-09-06T08:31:29;100117.75;;;15.95;98.18
42633;BME280;28261;53.304;-6.284;2022-09-06T08:33:35;100122.13;;;15.96;98.17
42633;BME280;28261;53.304;-6.284;2022-09-06T08:35:39;100126.34;;;15.98;98.30
42633;BME280;28261;53.304;-6.284;2022-09-06T08:37:43;100126.84;;;16.02;98.30
42633;BME280;28261;53.304;-6.284;2022-09-06T08:39:47;100129.06;;;16.06;97.73
42633;BME280;28261;53.304;-6.284;2022-09-06T08:41:55;100122.59;;;16.09;96.87
42633;BME280;28261;53.304;-6.284;2022-09-06T08:44:03;100123.09;;;16.13;96.80
42633;BME280;28261;53.304;-6.284;2022-09-06T08:46:31;100124.03;;;16.21;96.20
42633;BME280;28261;53.304;-6.284;2022-09-06T08:48:40;100122.09;;;16.32;94.07
42633;BME280;28261;53.304;-6.284;2022-09-06T08:50:52;100133.16;;;16.37;93.30
42633;BME280;28261;53.304;-6.284;2022-09-06T08:53:04;100123.34;;;16.46;92.48
42633;BME280;28261;53.304;-6.284;2022-09-06T08:55:28;100125.59;;;16.50;92.21
42633;BME280;28261;53.304;-6.284;2022-09-06T08:57:44;100111.22;;;16.51;92.10
42633;BME280;28261;53.304;-6.284;2022-09-06T08:59:54;100109.53;;;16.50;91.66
42633;BME280;28261;53.304;-6.284;2022-09-06T09:02:08;100116.91;;;16.56;92.10
42633;BME280;28261;53.304;-6.284;2022-09-06T09:04:20;100112.00;;;16.70;92.22
42633;BME280;28261;53.304;-6.284;2022-09-06T09:06:26;100104.38;;;16.83;91.57
42633;BME280;28261;53.304;-6.284;2022-09-06T09:08:38;100112.78;;;16.88;90.40
42633;BME280;28261;53.304;-6.284;2022-09-06T09:10:47;100102.97;;;16.97;89.64
42633;BME280;28261;53.304;-6.284;2022-09-06T09:12:53;100118.56;;;17.02;89.31
42633;BME280;28261;53.304;-6.284;2022-09-06T09:15:03;100112.22;;;17.11;89.48
42633;BME280;28261;53.304;-6.284;2022-09-06T09:17:14;100107.94;;;17.18;89.01
42633;BME280;28261;53.304;-6.284;2022-09-06T09:19:19;100101.25;;;17.22;88.88
42633;BME280;28261;53.304;-6.284;2022-09-06T09:21:24;100106.44;;;17.24;89.00
42633;BME280;28261;53.304;-6.284;2022-09-06T09:23:32;100113.50;;;17.25;88.49
42633;BME280;28261;53.304;-6.284;2022-09-06T09:25:38;100117.31;;;17.22;88.42
42633;BME280;28261;53.304;-6.284;2022-09-06T09:27:42;100113.94;;;17.20;89.08
42633;BME280;28261;53.304;-6.284;2022-09-06T09:29:59;100128.66;;;17.16;89.10
42633;BME280;28261;53.304;-6.284;2022-09-06T09:32:34;100139.00;;;17.11;89.23
42633;BME280;28261;53.304;-6.284;2022-09-06T09:34:39;100125.28;;;17.06;89.11
42633;BME280;28261;53.304;-6.284;2022-09-06T09:36:43;100129.91;;;16.96;88.87
42633;BME280;28261;53.304;-6.284;2022-09-06T09:39:09;100129.09;;;16.77;87.23
42633;BME280;28261;53.304;-6.284;2022-09-06T09:41:25;100115.41;;;16.54;86.56
42633;BME280;28261;53.304;-6.284;2022-09-06T09:43:32;100123.84;;;16.41;87.47
42633;BME280;28261;53.304;-6.284;2022-09-06T09:45:38;100128.13;;;16.34;88.80
42633;BME280;28261;53.304;-6.284;2022-09-06T09:47:43;100135.78;;;16.29;89.33
42633;BME280;28261;53.304;-6.284;2022-09-06T09:49:48;100136.25;;;16.24;90.11
42633;BME280;28261;53.304;-6.284;2022-09-06T09:52:04;100120.06;;;16.26;90.06
42633;BME280;28261;53.304;-6.284;2022-09-06T09:54:09;100122.28;;;16.12;89.24
42633;BME280;28261;53.304;-6.284;2022-09-06T09:56:14;100121.72;;;16.08;90.21
42633;BME280;28261;53.304;-6.284;2022-09-06T09:58:22;100122.56;;;16.27;90.79
42633;BME280;28261;53.304;-6.284;2022-09-06T10:00:34;100120.78;;;16.54;90.35
42633;BME280;28261;53.304;-6.284;2022-09-06T10:02:39;100132.84;;;16.84;90.21
42633;BME280;28261;53.304;-6.284;2022-09-06T10:04:45;100134.34;;;17.13;89.24
42633;BME280;28261;53.304;-6.284;2022-09-06T10:06:50;100127.06;;;17.40;87.37
42633;BME280;28261;53.304;-6.284;2022-09-06T10:09:17;100133.16;;;17.50;85.66
42633;BME280;28261;53.304;-6.284;2022-09-06T10:11:38;100118.22;;;17.48;85.17
42633;BME280;28261;53.304;-6.284;2022-09-06T10:13:42;100117.72;;;17.44;84.74
42633;BME280;28261;53.304;-6.284;2022-09-06T10:15:47;100130.59;;;17.32;85.79
42633;BME280;28261;53.304;-6.284;2022-09-06T10:17:51;100125.03;;;17.25;85.77
42633;BME280;28261;53.304;-6.284;2022-09-06T10:19:55;100114.25;;;17.09;87.23
42633;BME280;28261;53.304;-6.284;2022-09-06T10:22:11;100113.69;;;16.97;88.29
42633;BME280;28261;53.304;-6.284;2022-09-06T10:24:24;100109.63;;;16.93;90.03
42633;BME280;28261;53.304;-6.284;2022-09-06T10:26:37;100112.56;;;16.82;89.75
42633;BME280;28261;53.304;-6.284;2022-09-06T10:28:45;100111.81;;;16.71;90.52
42633;BME280;28261;53.304;-6.284;2022-09-06T10:31:05;100115.00;;;16.67;92.29
42633;BME280;28261;53.304;-6.284;2022-09-06T10:33:19;100113.56;;;16.54;93.65
42633;BME280;28261;53.304;-6.284;2022-09-06T10:35:30;100115.34;;;16.46;94.90
42633;BME280;28261;53.304;-6.284;2022-09-06T10:37:58;100113.06;;;16.33;97.61
42633;BME280;28261;53.304;-6.284;2022-09-06T10:40:10;100096.59;;;16.19;99.70
42633;BME280;28261;53.304;-6.284;2022-09-06T10:42:21;100096.28;;;16.04;100.00
42633;BME280;28261;53.304;-6.284;2022-09-06T10:44:49;100086.31;;;15.88;100.00
42633;BME280;28261;53.304;-6.284;2022-09-06T10:47:00;100089.00;;;15.79;100.00
42633;BME280;28261;53.304;-6.284;2022-09-06T10:49:14;100087.34;;;15.78;100.00
42633;BME280;28261;53.304;-6.284;2022-09-06T10:51:26;100096.81;;;15.72;100.00
42633;BME280;28261;53.304;-6.284;2022-09-06T10:53:40;100088.09;;;15.70;100.00